Time;durP1;ratioP1;P1;durP2;ratioP2;P2;SDS_P1;SDS_P2;PMS_P1;PMS_P2;Temp;Humidity;BMP_temperature;BMP_pressure;BME280_temperature;BME280_humidity;BME280_pressure;Samples;Min_cycle;Max_cycle;Signal;HPM_P1;HPM_P2
2023/04/23 00:01:01;;;;;;;17.47;9.00;;;;;;;13.53;70.84;99728.19;3142216;28;20105;-70
2023/04/23 00:02:34;;;;;;;14.40;8.35;;;;;;;13.52;70.57;99730.91;3144907;28;20858;-70
2023/04/23 00:04:08;;;;;;;13.93;9.00;;;;;;;13.50;71.07;99727.53;3144597;28;20048;-70
2023/04/23 00:05:41;;;;;;;10.98;7.90;;;;;;;13.47;70.99;99732.94;3138073;28;20060;-69
2023/04/23 00:07:13;;;;;;;12.35;8.27;;;;;;;13.39;71.06;99731.59;3134278;28;20049;-69
2023/04/23 00:08:47;;;;;;;12.77;7.57;;;;;;;13.31;71.51;99730.34;3145061;28;20052;-68
2023/04/23 00:10:20;;;;;;;12.05;7.63;;;;;;;13.28;71.52;99738.38;3143745;28;20544;-69
2023/04/23 00:11:52;;;;;;;10.65;7.13;;;;;;;13.17;71.52;99738.97;3132086;28;20049;-70
2023/04/23 00:13:24;;;;;;;11.60;7.70;;;;;;;13.09;71.85;99733.31;3145155;28;20578;-69
2023/04/23 00:14:56;;;;;;;14.10;7.57;;;;;;;13.02;71.95;99737.22;3144810;28;20655;-69
2023/04/23 00:16:30;;;;;;;12.27;7.30;;;;;;;12.95;72.30;99737.56;3144821;28;20503;-69
2023/04/23 00:18:01;;;;;;;12.65;7.45;;;;;;;12.91;72.10;99735.22;3144989;28;20056;-69
2023/04/23 00:19:32;;;;;;;12.02;7.35;;;;;;;12.89;72.55;99740.50;3145009;28;20078;-69
2023/04/23 00:21:04;;;;;;;16.38;8.82;;;;;;;12.87;72.73;99741.53;3144331;28;20056;-69
2023/04/23 00:22:36;;;;;;;15.98;8.13;;;;;;;12.87;72.82;99738.94;3132515;28;20103;-69
2023/04/23 00:24:08;;;;;;;11.65;7.80;;;;;;;12.88;72.75;99741.44;3141011;28;20139;-69
2023/04/23 00:25:40;;;;;;;14.45;7.97;;;;;;;12.91;72.59;99743.03;3144646;28;20708;-69
2023/04/23 00:27:12;;;;;;;10.35;6.60;;;;;;;12.92;72.66;99748.16;3142723;28;20048;-69
2023/04/23 00:28:42;;;;;;;17.27;8.45;;;;;;;12.93;72.95;99744.66;3144455;28;20048;-70
2023/04/23 00:30:15;;;;;;;12.77;7.70;;;;;;;12.91;72.63;99740.44;3139396;28;20411;-69
2023/04/23 00:31:48;;;;;;;14.50;7.63;;;;;;;12.98;72.73;99747.88;3144983;28;20466;-69
2023/04/23 00:33:20;;;;;;;13.13;7.22;;;;;;;12.97;72.83;99738.31;3139952;28;20053;-70
2023/04/23 00:34:58;;;;;;;11.50;7.47;;;;;;;13.03;72.68;99755.44;3136253;28;20051;-70
2023/04/23 00:36:30;;;;;;;13.85;7.60;;;;;;;13.04;72.49;99746.66;3132094;28;20045;-69
2023/04/23 00:38:01;;;;;;;11.05;6.68;;;;;;;13.05;72.87;99747.50;3135270;28;20059;-69
2023/04/23 00:39:34;;;;;;;12.18;7.45;;;;;;;13.09;72.81;99754.25;3136177;28;20092;-69
2023/04/23 00:41:07;;;;;;;11.82;6.80;;;;;;;13.09;72.59;99757.69;3134610;28;20049;-69
2023/04/23 00:42:40;;;;;;;12.27;6.93;;;;;;;13.07;72.62;99759.53;3124675;28;20572;-69
2023/04/23 00:44:12;;;;;;;15.98;7.25;;;;;;;13.00;72.96;99752.97;3134478;28;20645;-68
2023/04/23 00:45:43;;;;;;;10.00;6.57;;;;;;;12.98;73.33;99760.94;3135451;28;20847;-68
2023/04/23 00:47:16;;;;;;;10.95;7.70;;;;;;;12.93;73.17;99757.72;3133483;28;20202;-69
2023/04/23 00:48:49;;;;;;;13.68;6.20;;;;;;;12.84;73.38;99749.56;3132904;28;20090;-69
2023/04/23 00:50:21;;;;;;;10.05;6.95;;;;;;;12.76;73.39;99755.19;3129844;28;20061;-69
2023/04/23 00:51:53;;;;;;;11.43;6.68;;;;;;;12.70;73.86;99769.44;3128126;28;20330;-69
2023/04/23 00:53:25;;;;;;;13.43;6.38;;;;;;;12.65;73.83;99766.22;3134968;28;20520;-71
2023/04/23 00:54:56;;;;;;;10.23;6.95;;;;;;;12.59;73.95;99757.88;3135232;28;20052;-69
2023/04/23 00:56:28;;;;;;;11.45;6.07;;;;;;;12.55;74.12;99764.19;3134998;28;20440;-68
2023/04/23 00:57:59;;;;;;;16.23;6.03;;;;;;;12.45;74.17;99759.47;3128907;28;20056;-68
2023/04/23 00:59:32;;;;;;;11.10;5.80;;;;;;;12.41;74.19;99763.16;3134548;28;20620;-68
2023/04/23 01:01:04;;;;;;;16.27;6.15;;;;;;;12.33;73.99;99765.31;3132340;28;20116;-68
2023/04/23 01:02:38;;;;;;;10.80;5.00;;;;;;;12.26;74.21;99764.81;3134811;28;20113;-69
2023/04/23 01:04:09;;;;;;;10.38;5.13;;;;;;;12.16;73.97;99762.78;3134884;28;20102;-68
2023/04/23 01:05:42;;;;;;;10.75;4.88;;;;;;;12.14;73.99;99767.22;3131579;28;20755;-69
2023/04/23 01:07:13;;;;;;;10.48;4.95;;;;;;;12.05;73.97;99758.94;3131013;28;20053;-69
2023/04/23 01:08:46;;;;;;;9.73;5.68;;;;;;;12.03;73.68;99763.41;3135672;28;20135;-68
2023/04/23 01:10:19;;;;;;;11.23;5.75;;;;;;;11.95;73.21;99749.91;3136144;28;20141;-68
2023/04/23 01:11:50;;;;;;;12.02;4.90;;;;;;;11.84;72.84;99750.44;3134442;28;20057;-68
2023/04/23 01:13:25;;;;;;;12.88;5.45;;;;;;;11.87;73.01;99759.91;3135034;28;20095;-68
2023/04/23 01:14:56;;;;;;;12.02;5.43;;;;;;;11.81;72.97;99754.97;3134974;28;20083;-68
2023/04/23 01:16:28;;;;;;;9.02;5.50;;;;;;;11.81;72.79;99765.41;3135057;28;20090;-68
2023/04/23 01:18:03;;;;;;;13.35;5.70;;;;;;;11.77;72.69;99753.41;3133097;28;20060;-69
2023/04/23 01:19:35;;;;;;;13.65;5.20;;;;;;;11.82;72.83;99759.25;3124007;28;20044;-69
2023/04/23 01:21:07;;;;;;;12.10;5.07;;;;;;;11.83;72.67;99763.53;3132656;28;20087;-68
2023/04/23 01:22:41;;;;;;;8.85;4.82;;;;;;;11.82;72.75;99762.69;3128701;28;20049;-69
2023/04/23 01:24:11;;;;;;;;;;;;;;;11.72;72.57;99758.03;3131785;28;20686;-69
2023/04/23 01:25:44;;;;;;;14.85;5.82;;;;;;;11.70;72.36;99759.88;3134608;28;19928;-70
2023/04/23 01:27:15;;;;;;;11.40;6.10;;;;;;;11.65;72.73;99767.91;3131134;28;20049;-69
2023/04/23 01:28:48;;;;;;;9.38;5.35;;;;;;;11.64;72.32;99760.19;3129035;28;20049;-68
2023/04/23 01:30:20;;;;;;;8.63;4.77;;;;;;;11.44;72.76;99730.72;3128897;28;20057;-70
2023/04/23 01:31:54;;;;;;;13.55;5.70;;;;;;;11.60;72.55;99754.28;3135126;28;20044;-70
2023/04/23 01:33:25;;;;;;;;;;;;;;;11.51;72.59;99754.75;3119724;28;20071;-69
2023/04/23 01:34:58;;;;;;;10.07;4.68;;;;;;;11.51;72.57;99762.56;3129912;28;19925;-68
2023/04/23 01:36:30;;;;;;;10.85;5.32;;;;;;;11.48;72.60;99755.75;3135549;28;20098;-68
2023/04/23 01:38:04;;;;;;;14.82;5.05;;;;;;;11.49;72.46;99754.81;3135797;28;20053;-68
2023/04/23 01:39:36;;;;;;;13.30;5.47;;;;;;;11.48;72.63;99758.34;3136498;28;20110;-70
2023/04/23 01:41:08;;;;;;;14.60;5.00;;;;;;;11.49;72.82;99757.41;3136522;28;20052;-69
2023/04/23 01:42:40;;;;;;;7.30;4.57;;;;;;;11.48;72.71;99762.72;3131436;28;20118;-69
2023/04/23 01:44:12;;;;;;;9.75;5.05;;;;;;;11.47;72.34;99755.81;3112915;28;20532;-69
2023/04/23 01:45:44;;;;;;;10.43;4.68;;;;;;;11.44;72.42;99763.78;3136057;28;20052;-70
2023/04/23 01:47:16;;;;;;;13.50;4.72;;;;;;;11.43;72.64;99757.72;3135022;28;20052;-70
2023/04/23 01:48:48;;;;;;;9.23;4.78;;;;;;;11.44;72.60;99759.41;3132470;28;20147;-70
2023/04/23 01:50:22;;;;;;;9.38;4.90;;;;;;;11.46;72.04;99764.56;3131162;28;20059;-69
2023/04/23 01:51:54;;;;;;;10.93;5.20;;;;;;;11.48;72.40;99762.72;3133390;28;20064;-69
2023/04/23 01:53:27;;;;;;;13.07;4.57;;;;;;;11.45;71.98;99760.28;3136425;28;20509;-68
2023/04/23 01:54:57;;;;;;;;;;;;;;;11.22;72.27;99750.97;3136631;28;20080;-68
2023/04/23 01:56:32;;;;;;;15.25;4.93;;;;;;;11.33;72.10;99765.16;3136489;28;19924;-68
2023/04/23 01:58:03;;;;;;;10.07;5.03;;;;;;;11.31;72.13;99767.00;3134973;28;20236;-69
2023/04/23 01:59:35;;;;;;;12.18;5.18;;;;;;;11.29;72.19;99770.59;3135973;28;20359;-68
2023/04/23 02:01:06;;;;;;;20.42;5.30;;;;;;;11.28;72.18;99766.31;3134126;28;20466;-68
2023/04/23 02:02:40;;;;;;;12.75;5.53;;;;;;;11.07;72.59;99748.16;3137285;28;20055;-68
2023/04/23 02:04:12;;;;;;;12.38;4.43;;;;;;;11.19;72.34;99770.19;3129140;28;20052;-68
2023/04/23 02:05:45;;;;;;;11.50;5.10;;;;;;;11.18;72.66;99770.25;3137171;28;20048;-68
2023/04/23 02:07:17;;;;;;;11.98;4.82;;;;;;;11.14;72.63;99764.34;3127639;28;20083;-68
2023/04/23 02:08:50;;;;;;;8.88;5.57;;;;;;;11.13;72.34;99770.50;3137223;28;20060;-69
2023/04/23 02:10:22;;;;;;;;;;;;;;;11.04;72.61;99774.38;3136910;28;20062;-70
2023/04/23 02:11:53;;;;;;;9.30;5.07;;;;;;;11.03;72.59;99764.00;3136375;28;19929;-69
2023/04/23 02:13:25;;;;;;;7.82;4.85;;;;;;;11.01;72.80;99769.31;3129148;28;20118;-69
2023/04/23 02:14:57;;;;;;;13.00;5.72;;;;;;;11.03;72.95;99771.84;3129916;28;20143;-69
2023/04/23 02:16:28;;;;;;;13.95;5.53;;;;;;;11.04;72.71;99760.50;3135737;28;20083;-69
2023/04/23 02:18:00;;;;;;;12.20;5.07;;;;;;;11.09;72.77;99763.72;3133788;28;20889;-69
2023/04/23 02:19:34;;;;;;;12.27;5.68;;;;;;;11.12;72.94;99761.84;3134507;28;20060;-68
2023/04/23 02:21:06;;;;;;;13.60;5.55;;;;;;;11.14;73.37;99765.19;3136865;28;20114;-68
2023/04/23 02:22:39;;;;;;;11.85;5.63;;;;;;;11.16;73.00;99771.19;3136109;28;20053;-68
2023/04/23 02:24:12;;;;;;;16.45;5.70;;;;;;;11.15;73.20;99761.69;3136944;28;20054;-69
2023/04/23 02:25:44;;;;;;;11.25;5.40;;;;;;;11.11;73.10;99756.69;3136113;28;20603;-68
2023/04/23 02:27:15;;;;;;;8.95;5.22;;;;;;;11.19;73.06;99769.34;3136323;28;20567;-68
2023/04/23 02:28:47;;;;;;;12.27;5.15;;;;;;;11.21;72.63;99772.72;3133074;28;20358;-68
2023/04/23 02:30:18;;;;;;;15.98;5.50;;;;;;;11.20;73.01;99769.28;3129772;28;20122;-68
2023/04/23 02:31:50;;;;;;;10.80;4.93;;;;;;;11.21;72.64;99765.75;3135925;28;20048;-68
2023/04/23 02:33:23;;;;;;;9.52;5.00;;;;;;;11.26;72.65;99771.56;3131884;28;20584;-68
2023/04/23 02:34:55;;;;;;;12.10;4.85;;;;;;;11.26;72.44;99766.38;3137054;28;20509;-68
2023/04/23 02:36:29;;;;;;;11.00;4.78;;;;;;;11.31;72.54;99771.38;3139399;28;20575;-68
2023/04/23 02:38:00;;;;;;;13.23;4.75;;;;;;;11.30;72.64;99769.69;3136795;28;20052;-68
2023/04/23 02:39:34;;;;;;;10.57;5.03;;;;;;;11.27;72.33;99759.38;3136185;28;20596;-68
2023/04/23 02:41:05;;;;;;;11.05;4.97;;;;;;;11.34;72.45;99773.81;3135858;28;20052;-68
2023/04/23 02:42:37;;;;;;;14.35;4.93;;;;;;;11.34;72.13;99769.44;3137579;28;20060;-68
2023/04/23 02:44:08;;;;;;;7.50;4.30;;;;;;;11.36;72.01;99772.00;3124567;28;20502;-68
2023/04/23 02:45:40;;;;;;;11.60;4.75;;;;;;;11.33;72.16;99764.31;3135368;28;20544;-69
2023/04/23 02:47:12;;;;;;;10.52;4.75;;;;;;;11.39;71.96;99777.06;3133881;28;20450;-68
2023/04/23 02:48:44;;;;;;;14.32;5.18;;;;;;;11.41;71.88;99774.34;3134024;28;20508;-69
2023/04/23 02:50:16;;;;;;;14.77;5.47;;;;;;;11.41;71.97;99775.19;3132541;28;20126;-69
2023/04/23 02:51:48;;;;;;;16.10;4.43;;;;;;;11.41;71.51;99775.19;3132124;28;20120;-69
2023/04/23 02:53:20;;;;;;;17.63;5.28;;;;;;;11.36;71.69;99769.38;3136746;28;20052;-69
2023/04/23 02:54:54;;;;;;;6.88;4.15;;;;;;;11.42;71.55;99776.91;3136085;28;20607;-69
2023/04/23 02:56:24;;;;;;;;;;;;;;;11.32;71.32;99775.66;3136373;28;20360;-69
2023/04/23 02:57:57;;;;;;;10.27;4.43;;;;;;;11.32;71.66;99776.50;3130266;28;20515;-69
2023/04/23 02:59:29;;;;;;;13.90;4.70;;;;;;;11.20;71.20;99760.59;3123706;28;20616;-69
2023/04/23 03:01:00;;;;;;;10.65;5.15;;;;;;;11.29;71.50;99778.41;3126962;28;20045;-69
2023/04/23 03:02:32;;;;;;;11.02;4.95;;;;;;;11.31;71.14;99779.19;3132279;28;20044;-69
2023/04/23 03:04:03;;;;;;;9.25;5.03;;;;;;;11.30;71.36;99782.72;3135640;28;20064;-69
2023/04/23 03:05:35;;;;;;;16.25;4.90;;;;;;;11.27;71.31;99781.09;3136048;28;20092;-69
2023/04/23 03:07:07;;;;;;;13.60;4.85;;;;;;;11.27;71.31;99780.22;3136272;28;20059;-69
2023/04/23 03:08:39;;;;;;;9.52;4.63;;;;;;;11.26;71.09;99776.78;3135863;28;20063;-69
2023/04/23 03:10:13;;;;;;;15.43;4.47;;;;;;;11.27;71.45;99783.72;3128963;28;20135;-69
2023/04/23 03:11:45;;;;;;;10.30;4.63;;;;;;;11.24;71.46;99788.22;3122861;28;20456;-69
2023/04/23 03:13:16;;;;;;;10.88;4.60;;;;;;;11.25;71.20;99789.91;3134183;28;20064;-69
2023/04/23 03:14:48;;;;;;;11.57;4.45;;;;;;;11.23;71.21;99789.13;3135121;28;20068;-69
2023/04/23 03:16:20;;;;;;;10.18;4.20;;;;;;;11.23;71.38;99789.13;3134077;28;20548;-68
2023/04/23 03:17:52;;;;;;;12.95;4.68;;;;;;;11.21;71.51;99793.56;3133448;28;20056;-69
2023/04/23 03:19:27;;;;;;;13.98;4.57;;;;;;;11.21;71.40;99789.22;3136234;28;20060;-69
2023/04/23 03:20:59;;;;;;;12.63;4.50;;;;;;;11.19;71.36;99793.66;3136243;28;20481;-70
2023/04/23 03:22:30;;;;;;;12.68;4.47;;;;;;;11.15;71.49;99789.50;3135846;28;20059;-69
2023/04/23 03:24:02;;;;;;;16.35;5.38;;;;;;;11.19;71.45;99803.25;3129836;28;20510;-68
2023/04/23 03:25:36;;;;;;;9.90;4.53;;;;;;;11.16;71.30;99796.41;3129406;28;21061;-69
2023/04/23 03:27:07;;;;;;;;;;;;;;;11.09;71.51;99803.69;3135901;28;20048;-69
2023/04/23 03:28:39;;;;;;;9.65;3.80;;;;;;;11.09;71.42;99803.69;3132277;28;20006;-69
2023/04/23 03:30:12;;;;;;;11.88;4.97;;;;;;;10.91;71.60;99771.53;3127419;28;20044;-68
2023/04/23 03:31:44;;;;;;;13.80;4.35;;;;;;;11.10;71.53;99804.53;3131030;28;20051;-69
2023/04/23 03:33:15;;;;;;;10.73;4.90;;;;;;;11.10;71.58;99801.91;3135553;28;20489;-69
2023/04/23 03:34:47;;;;;;;11.57;4.25;;;;;;;11.11;71.22;99801.81;3135821;28;20515;-69
2023/04/23 03:36:20;;;;;;;15.38;4.85;;;;;;;11.12;71.23;99811.34;3135876;28;20144;-69
2023/04/23 03:37:52;;;;;;;10.63;4.70;;;;;;;11.13;70.99;99801.78;3135749;28;20140;-69
2023/04/23 03:39:24;;;;;;;16.23;4.90;;;;;;;11.11;71.41;99816.63;3135676;28;20105;-70
2023/04/23 03:40:56;;;;;;;9.73;4.18;;;;;;;11.11;71.24;99804.44;3135784;28;20060;-69
2023/04/23 03:42:28;;;;;;;13.88;4.18;;;;;;;11.10;71.26;99804.53;3136507;28;20220;-69
2023/04/23 03:44:00;;;;;;;10.95;3.92;;;;;;;11.13;70.88;99807.81;3130032;28;20052;-69
2023/04/23 03:45:32;;;;;;;12.68;4.25;;;;;;;11.12;70.67;99806.13;3131495;28;20351;-69
2023/04/23 03:47:04;;;;;;;8.82;4.13;;;;;;;11.08;71.06;99798.53;3132342;28;20059;-69
2023/04/23 03:48:36;;;;;;;10.18;4.57;;;;;;;11.05;70.84;99799.50;3131768;28;20109;-70
2023/04/23 03:50:09;;;;;;;11.80;4.13;;;;;;;11.14;70.45;99813.88;3133825;28;20052;-69
2023/04/23 03:51:40;;;;;;;10.23;3.83;;;;;;;11.13;70.62;99813.03;3131650;28;20498;-69
2023/04/23 03:53:11;;;;;;;11.10;3.95;;;;;;;11.12;70.53;99816.56;3136152;28;20508;-68
2023/04/23 03:54:43;;;;;;;9.60;3.83;;;;;;;11.13;70.72;99810.44;3136265;28;20056;-70
2023/04/23 03:56:17;;;;;;;7.15;3.65;;;;;;;11.13;70.25;99812.19;3133063;28;20044;-70
2023/04/23 03:57:49;;;;;;;;;;;;;;;11.04;70.68;99818.69;3135961;28;20554;-70
2023/04/23 03:59:20;;;;;;;10.88;3.78;;;;;;;11.05;70.56;99815.16;3132518;28;19924;-70
2023/04/23 04:00:51;;;;;;;10.55;4.18;;;;;;;11.05;70.35;99815.16;3130261;28;20498;-70
2023/04/23 04:02:22;;;;;;;12.27;4.63;;;;;;;11.04;70.31;99808.25;3134976;28;20048;-67
2023/04/23 04:03:54;;;;;;;11.90;4.40;;;;;;;11.06;70.46;99823.81;3135718;28;20156;-70
2023/04/23 04:05:26;;;;;;;12.43;4.90;;;;;;;11.02;70.63;99823.09;3136026;28;20048;-69
2023/04/23 04:07:00;;;;;;;11.57;4.53;;;;;;;10.78;70.57;99786.00;3132805;28;20053;-67
2023/04/23 04:08:32;;;;;;;10.18;4.68;;;;;;;11.02;70.46;99828.31;3135935;28;20068;-67
2023/04/23 04:10:04;;;;;;;13.40;4.32;;;;;;;11.01;70.63;99821.44;3127360;28;20106;-70
2023/04/23 04:11:38;;;;;;;12.65;5.47;;;;;;;11.01;71.00;99826.66;3134158;28;20079;-70
2023/04/23 04:13:10;;;;;;;14.98;5.30;;;;;;;11.01;71.07;99825.81;3134768;28;20080;-68
2023/04/23 04:14:41;;;;;;;11.25;5.35;;;;;;;11.01;71.12;99829.25;3126114;28;20059;-69
2023/04/23 04:16:13;;;;;;;12.70;5.07;;;;;;;11.02;70.97;99830.94;3132142;28;20505;-68
2023/04/23 04:17:45;;;;;;;11.20;5.65;;;;;;;11.03;71.03;99830.03;3134871;28;20053;-69
2023/04/23 04:19:16;;;;;;;13.82;5.93;;;;;;;11.05;71.08;99833.38;3134422;28;20197;-69
2023/04/23 04:20:50;;;;;;;9.55;5.28;;;;;;;11.09;71.07;99834.97;3134339;28;20531;-69
2023/04/23 04:22:21;;;;;;;12.32;5.53;;;;;;;11.11;71.16;99840.06;3135428;28;20052;-68
2023/04/23 04:23:53;;;;;;;14.43;5.88;;;;;;;11.07;71.11;99828.97;3134327;28;20048;-68
2023/04/23 04:25:27;;;;;;;9.00;5.47;;;;;;;11.09;71.33;99832.34;3134368;28;20091;-69
2023/04/23 04:27:00;;;;;;;14.15;5.75;;;;;;;11.12;71.24;99833.94;3134807;28;20064;-69
2023/04/23 04:28:35;;;;;;;17.27;5.10;;;;;;;11.16;71.11;99836.34;3135493;28;20071;-68
2023/04/23 04:30:08;;;;;;;14.88;5.68;;;;;;;11.19;70.98;99829.31;3130958;28;20605;-69
2023/04/23 04:31:39;;;;;;;11.10;5.50;;;;;;;11.20;71.20;99836.19;3139995;28;20052;-69
2023/04/23 04:33:11;;;;;;;9.40;4.90;;;;;;;11.25;70.95;99848.09;3139348;28;20187;-69
2023/04/23 04:34:42;;;;;;;14.23;4.78;;;;;;;11.28;70.91;99850.56;3139790;28;20052;-69
2023/04/23 04:36:14;;;;;;;11.10;5.38;;;;;;;11.29;70.77;99854.84;3138993;28;20118;-68
2023/04/23 04:37:46;;;;;;;11.93;4.40;;;;;;;11.33;70.65;99852.97;3139569;28;20056;-68
2023/04/23 04:39:18;;;;;;;10.02;3.95;;;;;;;11.33;70.50;99853.81;3140804;28;20052;-68
2023/04/23 04:40:49;;;;;;;8.88;4.35;;;;;;;11.31;70.54;99845.19;3144144;28;20057;-69
2023/04/23 04:42:24;;;;;;;11.52;4.25;;;;;;;11.30;70.55;99853.13;3144664;28;20044;-68
2023/04/23 04:43:55;;;;;;;9.00;4.35;;;;;;;11.31;70.32;99857.41;3142864;28;20056;-69
2023/04/23 04:45:27;;;;;;;8.20;4.22;;;;;;;11.27;70.20;99851.50;3141889;28;20060;-68
2023/04/23 04:46:59;;;;;;;11.00;4.28;;;;;;;11.29;69.96;99854.84;3144791;28;20453;-68
2023/04/23 04:48:30;;;;;;;12.75;5.03;;;;;;;11.31;70.14;99860.00;3141363;28;20083;-68
2023/04/23 04:50:02;;;;;;;15.57;4.22;;;;;;;11.31;70.29;99862.63;3136772;28;20050;-68
2023/04/23 04:51:34;;;;;;;8.75;4.45;;;;;;;11.33;70.23;99866.00;3124473;28;20053;-69
2023/04/23 04:53:06;;;;;;;9.38;4.13;;;;;;;11.34;70.29;99870.28;3127315;28;20503;-72
2023/04/23 04:54:38;;;;;;;9.63;4.40;;;;;;;11.42;70.33;99865.56;3122474;28;20056;-71
2023/04/23 04:56:09;;;;;;;11.63;4.10;;;;;;;11.47;69.95;99871.38;3124499;28;20057;-71
2023/04/23 04:57:43;;;;;;;13.02;4.45;;;;;;;11.54;69.81;99872.78;3127194;28;20068;-71
2023/04/23 04:59:14;;;;;;;;;;;;;;;11.52;70.03;99877.22;3124599;28;20156;-71
2023/04/23 05:00:46;;;;;;;10.80;4.13;;;;;;;11.57;69.79;99879.63;3126257;28;19925;-71
2023/04/23 05:02:20;;;;;;;11.20;4.95;;;;;;;11.64;69.77;99875.81;3127549;28;20049;-71
2023/04/23 05:03:53;;;;;;;11.57;4.70;;;;;;;11.71;69.49;99877.22;3125600;28;20552;-71
2023/04/23 05:05:26;;;;;;;10.65;4.25;;;;;;;11.77;69.53;99886.47;3124293;28;20049;-71
2023/04/23 05:06:58;;;;;;;11.15;4.28;;;;;;;11.81;69.28;99880.22;3125816;28;20528;-71
2023/04/23 05:08:29;;;;;;;17.63;4.25;;;;;;;11.87;69.11;99882.53;3126258;28;20048;-72
2023/04/23 05:10:01;;;;;;;10.27;3.80;;;;;;;11.92;68.72;99880.56;3126122;28;20053;-72
2023/04/23 05:11:34;;;;;;;9.50;3.72;;;;;;;11.95;68.71;99882.16;3131914;28;20133;-73
2023/04/23 05:13:07;;;;;;;7.85;3.67;;;;;;;11.93;68.36;99878.78;3130378;28;20123;-73
2023/04/23 05:14:39;;;;;;;8.70;3.72;;;;;;;12.01;68.06;99884.47;3130453;28;20106;-71
2023/04/23 05:16:11;;;;;;;8.73;3.75;;;;;;;12.05;68.02;99886.00;3134975;28;20040;-75
2023/04/23 05:17:43;;;;;;;7.53;3.50;;;;;;;12.06;67.65;99893.75;3134636;28;20056;-71
2023/04/23 05:19:15;;;;;;;8.38;4.10;;;;;;;12.09;67.64;99891.91;3129344;28;20049;-76
2023/04/23 05:20:47;;;;;;;9.70;4.15;;;;;;;12.11;67.41;99884.84;3127294;28;20138;-74
2023/04/23 05:22:19;;;;;;;7.00;3.67;;;;;;;12.12;67.60;99884.75;3136144;28;20536;-71
2023/04/23 05:23:51;;;;;;;9.50;3.67;;;;;;;12.11;67.17;99874.41;3146433;28;20640;-70
2023/04/23 05:25:23;;;;;;;9.45;3.70;;;;;;;12.17;66.79;99888.00;3147090;28;20048;-70
2023/04/23 05:26:55;;;;;;;6.88;4.00;;;;;;;12.18;66.58;99891.44;3146771;28;20056;-67
2023/04/23 05:28:29;;;;;;;9.45;4.13;;;;;;;12.22;66.77;99891.22;3143587;28;20510;-68
2023/04/23 05:30:01;;;;;;;13.07;4.43;;;;;;;12.24;66.19;99888.53;3134596;28;20106;-69
2023/04/23 05:31:33;;;;;;;12.88;4.55;;;;;;;12.26;65.98;99890.16;3145164;28;20048;-68
2023/04/23 05:33:05;;;;;;;9.70;4.22;;;;;;;12.29;66.09;99899.59;3146561;28;20044;-70
2023/04/23 05:34:37;;;;;;;7.22;3.40;;;;;;;12.26;65.91;99890.16;3146707;28;20126;-70
2023/04/23 05:36:09;;;;;;;5.40;3.78;;;;;;;12.31;65.85;99889.91;3146475;28;20075;-67
2023/04/23 05:37:41;;;;;;;9.43;3.35;;;;;;;12.34;65.88;99881.94;3146924;28;20048;-69
2023/04/23 05:39:13;;;;;;;11.95;3.63;;;;;;;12.42;65.51;99890.22;3146287;28;20755;-70
2023/04/23 05:40:45;;;;;;;137.98;67.38;;;;;;;12.49;65.40;99888.13;3146495;28;20052;-68
2023/04/23 05:42:17;;;;;;;10.00;5.80;;;;;;;12.52;65.26;99890.59;3147644;28;20052;-67
2023/04/23 05:43:50;;;;;;;35.40;15.30;;;;;;;12.55;65.23;99889.59;3147831;28;20139;-67
2023/04/23 05:45:21;;;;;;;;;;;;;;;12.51;65.13;99892.34;3141058;28;20123;-72
2023/04/23 05:46:53;;;;;;;12.75;5.15;;;;;;;12.47;65.38;99880.38;3141820;28;19932;-76
2023/04/23 05:48:25;;;;;;;14.88;4.38;;;;;;;12.64;65.13;99900.41;3136484;28;20541;-70
2023/04/23 05:49:57;;;;;;;10.60;4.57;;;;;;;12.60;65.02;99884.94;3139832;28;20484;-73
2023/04/23 05:51:29;;;;;;;8.23;4.32;;;;;;;12.70;64.79;99896.63;3142830;28;20044;-76
2023/04/23 05:53:01;;;;;;;13.60;4.32;;;;;;;12.73;64.42;99893.84;3146145;28;20468;-72
2023/04/23 05:54:33;;;;;;;10.80;4.03;;;;;;;12.79;64.38;99897.91;3146873;28;20045;-67
2023/04/23 05:56:05;;;;;;;8.10;3.60;;;;;;;12.78;64.28;99893.59;3146221;28;20445;-72
2023/04/23 05:57:37;;;;;;;14.60;4.18;;;;;;;12.78;63.52;99899.69;3141471;28;20052;-68
2023/04/23 05:59:11;;;;;;;16.38;6.80;;;;;;;12.63;63.73;99872.59;3143561;28;20714;-71
2023/04/23 06:00:42;;;;;;;25.73;11.57;;;;;;;12.80;63.51;99903.03;3135242;28;20049;-69
2023/04/23 06:02:14;;;;;;;56.53;29.67;;;;;;;12.84;63.63;99903.75;3146225;28;20051;-68
2023/04/23 06:03:47;;;;;;;24.38;11.57;;;;;;;12.87;63.60;99907.03;3146363;28;20060;-69
2023/04/23 06:05:25;;;;;;;23.52;10.65;;;;;;;12.90;63.59;99903.41;3145106;28;20132;-66
2023/04/23 06:06:56;;;;;;;10.00;4.38;;;;;;;12.93;63.09;99909.31;3146258;28;20153;-67
2023/04/23 06:08:28;;;;;;;15.07;5.43;;;;;;;12.95;62.90;99904.00;3146353;28;20053;-66
2023/04/23 06:10:00;;;;;;;7.13;2.88;;;;;;;12.93;62.41;99900.63;3143539;28;20052;-71
2023/04/23 06:11:32;;;;;;;7.85;3.70;;;;;;;12.93;62.36;99905.88;3137219;28;20460;-72
2023/04/23 06:13:04;;;;;;;7.00;3.55;;;;;;;13.00;62.34;99911.59;3138906;28;20052;-69
2023/04/23 06:14:37;;;;;;;12.35;3.28;;;;;;;13.01;62.31;99911.50;3146227;28;20109;-70
2023/04/23 06:16:09;;;;;;;8.52;3.22;;;;;;;13.05;62.34;99912.22;3139449;28;20062;-77
2023/04/23 06:17:47;;;;;;;8.10;3.72;;;;;;;13.08;62.19;99906.81;3145732;28;20049;-76
2023/04/23 06:19:19;;;;;;;8.38;3.08;;;;;;;13.10;61.82;99907.56;3144805;28;20732;-73
2023/04/23 06:20:51;;;;;;;13.27;3.60;;;;;;;13.14;61.85;99916.94;3144829;28;20422;-75
2023/04/23 06:22:23;;;;;;;6.72;3.92;;;;;;;13.16;61.94;99915.06;3144653;28;20080;-74
2023/04/23 06:23:55;;;;;;;12.57;3.60;;;;;;;13.18;62.02;99908.84;3145056;28;20145;-74
2023/04/23 06:25:27;;;;;;;7.60;3.20;;;;;;;13.25;61.95;99914.63;3143915;28;20087;-73
2023/04/23 06:27:00;;;;;;;9.00;3.10;;;;;;;13.29;61.70;99908.28;3141105;28;20049;-74
2023/04/23 06:28:32;;;;;;;9.88;3.30;;;;;;;13.32;61.89;99905.50;3123810;28;20053;-74
2023/04/23 06:30:07;;;;;;;8.35;3.25;;;;;;;13.37;61.74;99905.28;3135522;28;20106;-79
2023/04/23 06:31:40;;;;;;;8.43;3.78;;;;;;;13.39;61.84;99898.16;3144245;28;20079;-77
2023/04/23 06:33:12;;;;;;;9.65;4.00;;;;;;;13.46;61.68;99911.75;3144706;28;20044;-77
2023/04/23 06:34:44;;;;;;;10.93;4.78;;;;;;;13.48;61.63;99907.28;3144341;28;20052;-81
2023/04/23 06:36:16;;;;;;;10.80;3.88;;;;;;;13.52;61.32;99907.03;3144936;28;20527;-77
2023/04/23 06:37:48;;;;;;;13.65;4.15;;;;;;;13.59;61.21;99908.38;3145162;28;20487;-76
2023/04/23 06:39:20;;;;;;;15.55;4.05;;;;;;;13.61;61.21;99908.28;3144577;28;20053;-80
2023/04/23 06:40:51;;;;;;;8.60;3.88;;;;;;;13.67;61.09;99907.94;3142034;28;20106;-78
2023/04/23 06:42:23;;;;;;;11.82;4.13;;;;;;;13.71;60.96;99906.00;3129074;28;20688;-77
2023/04/23 06:43:55;;;;;;;13.43;3.95;;;;;;;13.68;60.66;99895.72;3137457;28;20075;-73
2023/04/23 06:45:30;;;;;;;10.68;3.97;;;;;;;13.76;60.46;99907.44;3134920;28;20067;-78
2023/04/23 06:47:02;;;;;;;7.15;3.70;;;;;;;13.76;60.57;99910.03;3127720;28;20056;-73
2023/04/23 06:48:34;;;;;;;7.93;3.53;;;;;;;13.80;60.74;99908.09;3136167;28;20289;-75
2023/04/23 06:50:08;;;;;;;7.78;3.45;;;;;;;13.82;60.60;99906.25;3138274;28;20058;-76
2023/04/23 06:51:40;;;;;;;7.75;3.88;;;;;;;13.82;60.77;99907.09;3134977;28;20396;-72
2023/04/23 06:53:12;;;;;;;7.45;4.30;;;;;;;13.95;60.55;99914.22;3139755;28;20041;-74
2023/04/23 06:54:44;;;;;;;20.08;4.28;;;;;;;13.98;60.43;99900.97;3139486;28;20334;-74
2023/04/23 06:56:16;;;;;;;6.75;3.80;;;;;;;14.05;60.39;99907.50;3132629;28;20048;-77
2023/04/23 06:57:48;;;;;;;8.15;4.47;;;;;;;14.13;60.31;99905.31;3133121;28;20064;-79
2023/04/23 06:59:19;;;;;;;9.30;4.03;;;;;;;14.21;60.07;99915.34;3140420;28;20110;-77
2023/04/23 07:00:53;;;;;;;11.57;4.80;;;;;;;14.31;59.92;99913.84;3135329;28;20136;-76
2023/04/23 07:02:25;;;;;;;12.98;4.00;;;;;;;14.20;59.61;99885.69;3130637;28;20079;-77
2023/04/23 07:03:57;;;;;;;9.88;3.78;;;;;;;14.37;59.45;99912.66;3139473;28;20060;-77
2023/04/23 07:05:29;;;;;;;11.63;4.30;;;;;;;14.40;59.65;99904.63;3139308;28;20067;-71
2023/04/23 07:07:02;;;;;;;8.70;3.63;;;;;;;14.46;59.41;99907.72;3139614;28;20162;-73
2023/04/23 07:08:34;;;;;;;15.15;4.35;;;;;;;14.56;59.37;99918.53;3139667;28;20113;-71
2023/04/23 07:10:07;;;;;;;21.05;11.40;;;;;;;14.65;59.30;99907.50;3139965;28;20052;-72
2023/04/23 07:11:39;;;;;;;;;;;;;;;14.67;59.36;99908.25;3136671;28;20055;-69